Time;durP1;ratioP1;P1;durP2;ratioP2;P2;SDS_P1;SDS_P2;PMS_P1;PMS_P2;Temp;Humidity;BMP_temperature;BMP_pressure;BME280_temperature;BME280_humidity;BME280_pressure;Samples;Min_cycle;Max_cycle;Signal;HPM_P1;HPM_P2
2022/07/14 00:01:23;;;;;;;13.02;2.40;;;15.50;99.90;;;;;;5057618;28;20048;-79
2022/07/14 00:03:49;;;;;;;10.45;2.13;;;15.90;99.90;;;;;;5053113;28;20381;-80
2022/07/14 00:06:15;;;;;;;8.52;1.80;;;15.90;99.90;;;;;;5054642;28;20048;-79
2022/07/14 00:08:44;;;;;;;8.52;1.92;;;15.30;99.90;;;;;;5053742;28;20120;-79
2022/07/14 00:11:11;;;;;;;9.82;2.30;;;15.60;99.90;;;;;;5054950;28;20052;-79
2022/07/14 00:13:37;;;;;;;12.90;2.65;;;16.00;99.90;;;;;;5063287;28;20075;-79
2022/07/14 00:16:04;;;;;;;10.30;2.78;;;15.30;99.90;;;;;;5065510;28;20036;-79
2022/07/14 00:18:30;;;;;;;10.95;2.67;;;15.20;99.90;;;;;;5060657;28;20037;-79
2022/07/14 00:20:56;;;;;;;8.68;2.38;;;15.20;99.90;;;;;;5061473;28;20539;-79
2022/07/14 00:23:24;;;;;;;8.13;1.85;;;15.90;99.90;;;;;;5054149;28;20053;-79
2022/07/14 00:25:50;;;;;;;8.60;2.58;;;15.80;99.90;;;;;;5058460;28;20052;-79
2022/07/14 00:28:16;;;;;;;8.85;2.15;;;15.70;99.90;;;;;;5059326;28;20048;-80
2022/07/14 00:30:41;;;;;;;8.32;1.98;;;15.00;99.90;;;;;;5063524;28;20082;-79
2022/07/14 00:33:07;;;;;;;7.38;1.70;;;15.00;99.90;;;;;;5059817;28;20051;-79
2022/07/14 00:35:35;;;;;;;8.20;2.33;;;15.70;99.90;;;;;;5059788;28;20435;-79
2022/07/14 00:38:04;;;;;;;8.52;2.13;;;14.70;99.90;;;;;;5059854;28;20125;-79
2022/07/14 00:40:29;;;;;;;10.30;2.28;;;15.60;99.90;;;;;;5058274;28;20436;-79
2022/07/14 00:42:55;;;;;;;10.82;2.10;;;15.50;99.90;;;;;;5058992;28;20083;-79
2022/07/14 00:45:21;;;;;;;10.25;2.20;;;15.50;99.90;;;;;;5060074;28;20131;-79
2022/07/14 00:47:48;;;;;;;7.43;1.67;;;14.90;99.90;;;;;;5063710;28;20513;-79
2022/07/14 00:50:16;;;;;;;11.73;1.75;;;15.70;99.90;;;;;;5065318;28;20052;-79
2022/07/14 00:52:43;;;;;;;9.43;2.05;;;14.90;99.90;;;;;;5056644;28;20041;-79
2022/07/14 00:55:12;;;;;;;8.43;2.47;;;15.00;99.90;;;;;;5060875;28;20080;-79
2022/07/14 00:57:38;;;;;;;12.07;2.20;;;14.90;99.90;;;;;;5059358;28;20047;-79
2022/07/14 01:00:07;;;;;;;7.82;1.60;;;14.70;99.90;;;;;;5053939;28;20033;-79
2022/07/14 01:02:32;;;;;;;11.50;2.10;;;14.70;99.90;;;;;;5066100;28;20040;-79
2022/07/14 01:04:58;;;;;;;9.73;1.98;;;14.70;99.90;;;;;;5053302;28;20045;-79
2022/07/14 01:07:24;;;;;;;9.88;2.22;;;14.60;99.90;;;;;;5061648;28;20067;-79
2022/07/14 01:09:49;;;;;;;10.52;2.10;;;14.60;99.90;;;;;;5060509;28;20083;-79
2022/07/14 01:12:15;;;;;;;7.95;2.40;;;14.50;99.90;;;;;;5056072;28;20483;-79
2022/07/14 01:14:41;;;;;;;11.95;2.17;;;15.30;99.90;;;;;;5059688;28;20041;-79
2022/07/14 01:17:08;;;;;;;8.52;2.28;;;14.60;99.90;;;;;;5064123;28;20051;-79
2022/07/14 01:19:34;;;;;;;10.63;2.35;;;14.60;99.90;;;;;;5054106;28;20425;-79
2022/07/14 01:22:00;;;;;;;8.20;2.50;;;14.60;99.90;;;;;;5059419;28;20136;-79
2022/07/14 01:24:27;;;;;;;10.00;2.38;;;14.90;99.90;;;;;;5057066;28;20106;-79
2022/07/14 01:26:53;;;;;;;8.68;2.13;;;15.00;99.90;;;;;;5050298;28;20045;-79
2022/07/14 01:29:20;;;;;;;13.90;3.00;;;15.10;99.90;;;;;;5053082;28;20051;-79
2022/07/14 01:31:46;;;;;;;8.23;2.40;;;15.00;99.90;;;;;;5060514;28;20604;-79
2022/07/14 01:34:12;;;;;;;10.60;2.72;;;15.20;99.90;;;;;;5055033;28;20056;-79
2022/07/14 01:36:38;;;;;;;9.20;2.10;;;15.20;99.90;;;;;;5051596;28;20403;-79
2022/07/14 01:39:05;;;;;;;9.50;1.95;;;14.40;99.90;;;;;;5057379;28;20078;-79
2022/07/14 01:41:31;;;;;;;10.48;2.30;;;15.20;99.90;;;;;;5053200;28;20057;-79
2022/07/14 01:43:57;;;;;;;9.43;2.03;;;14.20;99.90;;;;;;5053984;28;20044;-79
2022/07/14 01:46:23;;;;;;;7.43;2.00;;;14.00;99.90;;;;;;5054223;28;20036;-79
2022/07/14 01:48:48;;;;;;;9.63;2.00;;;14.40;99.90;;;;;;5059461;28;20124;-79
2022/07/14 01:51:14;;;;;;;13.20;2.70;;;14.70;99.90;;;;;;5063893;28;20045;-79
2022/07/14 01:53:41;;;;;;;11.88;2.33;;;13.80;99.90;;;;;;5060613;28;20044;-79
2022/07/14 01:56:08;;;;;;;8.38;2.08;;;13.70;99.90;;;;;;5053370;28;20056;-79
2022/07/14 01:58:33;;;;;;;10.60;2.25;;;14.50;99.90;;;;;;5056655;28;20052;-79
2022/07/14 02:03:45;;;;;;;9.43;1.80;;;13.60;99.90;;;;;;5058000;28;20045;-78
2022/07/14 02:06:13;;;;;;;10.43;3.03;;;13.70;99.90;;;;;;5063369;28;20097;-79
2022/07/14 02:08:39;;;;;;;6.85;1.73;;;13.60;99.90;;;;;;5068693;28;20075;-79
2022/07/14 02:13:49;;;;;;;7.75;2.20;;;13.90;99.90;;;;;;5059579;28;20079;-79
2022/07/14 02:16:15;;;;;;;8.85;2.42;;;13.80;99.90;;;;;;5066682;28;20079;-80
2022/07/14 02:18:41;;;;;;;9.35;2.10;;;13.70;99.90;;;;;;5066889;28;20775;-79
2022/07/14 02:21:07;;;;;;;12.00;2.40;;;13.80;99.90;;;;;;5056157;28;20535;-79
2022/07/14 02:23:33;;;;;;;8.63;1.52;;;13.40;99.90;;;;;;5067044;28;20080;-79
2022/07/14 02:25:59;;;;;;;7.43;2.33;;;14.10;99.90;;;;;;5067362;28;20127;-79
2022/07/14 02:28:24;;;;;;;9.98;2.90;;;13.60;99.90;;;;;;5059568;28;20182;-79
2022/07/14 02:30:51;;;;;;;8.43;2.40;;;13.40;99.90;;;;;;5057609;28;20037;-79
2022/07/14 02:33:17;;;;;;;6.15;2.28;;;13.10;99.90;;;;;;5051990;28;20544;-79
2022/07/14 02:35:42;;;;;;;8.50;2.60;;;13.70;99.90;;;;;;5062116;28;20175;-79
2022/07/14 02:38:08;;;;;;;6.60;2.50;;;13.30;99.90;;;;;;5065314;28;20049;-79
2022/07/14 02:40:34;;;;;;;8.13;2.20;;;14.10;99.90;;;;;;5057603;28;20510;-79
2022/07/14 02:42:59;;;;;;;8.38;2.20;;;13.20;99.90;;;;;;5062668;28;20507;-79
2022/07/14 02:45:25;;;;;;;8.18;3.55;;;13.20;99.90;;;;;;5057372;28;20071;-79
2022/07/14 02:47:51;;;;;;;8.68;2.08;;;14.00;99.90;;;;;;5066760;28;20040;-79
2022/07/14 02:50:16;;;;;;;8.65;2.92;;;13.30;99.90;;;;;;5057175;28;20063;-79
2022/07/14 02:52:42;;;;;;;9.30;2.70;;;13.70;99.90;;;;;;5054904;28;20041;-79
2022/07/14 02:55:08;;;;;;;11.07;2.42;;;13.10;99.90;;;;;;5060017;28;20064;-79
2022/07/14 02:57:34;;;;;;;7.68;2.30;;;13.10;99.90;;;;;;5055719;28;20040;-79
2022/07/14 02:59:59;;;;;;;7.30;2.17;;;13.60;99.90;;;;;;5057848;28;20037;-80
2022/07/14 03:02:25;;;;;;;7.70;2.10;;;13.10;99.90;;;;;;5063399;28;20132;-79
2022/07/14 03:04:51;;;;;;;7.50;2.63;;;13.10;99.90;;;;;;5059896;28;20033;-79
2022/07/14 03:07:17;;;;;;;6.53;1.92;;;13.00;99.90;;;;;;5066885;28;20049;-79
2022/07/14 03:09:42;;;;;;;7.90;2.70;;;12.90;99.90;;;;;;5069195;28;20102;-79
2022/07/14 03:12:08;;;;;;;8.77;2.33;;;12.70;99.90;;;;;;5067394;28;20556;-79
2022/07/14 03:14:34;;;;;;;5.53;2.42;;;12.80;99.90;;;;;;5062053;28;20041;-79
2022/07/14 03:16:59;;;;;;;6.05;2.13;;;12.80;99.90;;;;;;5064134;28;20125;-80
2022/07/14 03:19:25;;;;;;;7.63;2.75;;;12.80;99.90;;;;;;5059699;28;20041;-79
2022/07/14 03:21:51;;;;;;;5.30;2.15;;;12.70;99.90;;;;;;5065852;28;20054;-79
2022/07/14 03:24:17;;;;;;;9.18;2.50;;;12.60;99.90;;;;;;5066384;28;20063;-79
2022/07/14 03:26:43;;;;;;;9.93;2.90;;;12.60;99.90;;;;;;5059679;28;20029;-79
2022/07/14 03:29:09;;;;;;;7.63;2.38;;;12.60;99.90;;;;;;5056733;28;20052;-79
2022/07/14 03:31:34;;;;;;;6.65;2.45;;;12.90;99.90;;;;;;5058315;28;20084;-79
2022/07/14 03:34:00;;;;;;;5.88;2.03;;;13.20;99.90;;;;;;5053787;28;20049;-79
2022/07/14 03:36:26;;;;;;;6.85;2.65;;;12.30;99.90;;;;;;5060022;28;20094;-79
2022/07/14 03:38:51;;;;;;;8.88;2.38;;;12.80;99.90;;;;;;5065198;28;20757;-80
2022/07/14 03:41:17;;;;;;;7.53;2.25;;;12.40;99.90;;;;;;5055561;28;20037;-79
2022/07/14 03:43:46;;;;;;;10.95;3.20;;;13.10;99.90;;;;;;5068739;28;20041;-79
2022/07/14 03:46:12;;;;;;;8.40;2.33;;;12.70;99.90;;;;;;5058924;28;20137;-79
2022/07/14 03:48:38;;;;;;;9.40;3.63;;;13.00;99.90;;;;;;5054913;28;20052;-79
2022/07/14 03:51:04;;;;;;;10.30;2.50;;;12.50;99.90;;;;;;5060268;28;20044;-79
2022/07/14 03:53:30;;;;;;;10.50;2.88;;;12.40;99.90;;;;;;5071210;28;20040;-79
2022/07/14 03:55:57;;;;;;;9.23;2.53;;;13.10;99.90;;;;;;5062100;28;20127;-79
2022/07/14 03:58:23;;;;;;;7.47;2.97;;;12.40;99.90;;;;;;5061145;28;20048;-79
2022/07/14 04:00:48;;;;;;;9.88;2.90;;;12.70;99.90;;;;;;5066267;28;20029;-79
2022/07/14 04:03:14;;;;;;;8.25;3.03;;;12.50;99.90;;;;;;5065954;28;20080;-79
2022/07/14 04:05:40;;;;;;;10.60;2.60;;;12.70;99.90;;;;;;5069232;28;20044;-79
2022/07/14 04:08:05;;;;;;;7.32;2.75;;;12.40;99.90;;;;;;5063776;28;20076;-79
2022/07/14 04:10:31;;;;;;;7.55;2.70;;;12.40;99.90;;;;;;5061275;28;20127;-79
2022/07/14 04:12:57;;;;;;;6.22;2.72;;;12.40;99.90;;;;;;5056997;28;20045;-79
2022/07/14 04:15:23;;;;;;;10.07;3.25;;;13.20;99.90;;;;;;5053527;28;20052;-79
2022/07/14 04:17:49;;;;;;;9.15;3.28;;;13.30;99.90;;;;;;5064510;28;20036;-79
2022/07/14 04:20:15;;;;;;;7.75;2.70;;;12.40;99.90;;;;;;5058376;28;20423;-79
2022/07/14 04:22:40;;;;;;;9.93;3.10;;;12.40;99.90;;;;;;5061284;28;20049;-79
2022/07/14 04:25:09;;;;;;;8.32;2.78;;;12.00;99.90;;;;;;5066228;28;20049;-79
2022/07/14 04:27:35;;;;;;;8.45;2.60;;;12.40;99.90;;;;;;5055926;28;20115;-79
2022/07/14 04:30:00;;;;;;;8.77;3.05;;;12.40;99.90;;;;;;5058320;28;20496;-79
2022/07/14 04:32:27;;;;;;;9.27;3.85;;;12.40;99.90;;;;;;5069089;28;20396;-79
2022/07/14 04:34:52;;;;;;;7.13;2.65;;;12.40;99.90;;;;;;5059904;28;20121;-80
2022/07/14 04:37:18;;;;;;;7.43;2.85;;;12.40;99.90;;;;;;5069792;28;20068;-79
2022/07/14 04:39:44;;;;;;;10.80;3.40;;;13.00;99.90;;;;;;5066424;28;20086;-79
2022/07/14 04:42:09;;;;;;;9.18;3.33;;;12.50;99.90;;;;;;5059996;28;20102;-79
2022/07/14 04:44:35;;;;;;;13.02;3.22;;;12.50;99.90;;;;;;5069581;28;20057;-79
2022/07/14 04:47:00;;;;;;;9.38;3.00;;;12.30;99.90;;;;;;5055381;28;20045;-80
2022/07/14 04:52:10;;;;;;;8.27;3.20;;;12.60;99.90;;;;;;5062546;28;20045;-79
2022/07/14 04:54:36;;;;;;;8.65;3.75;;;12.50;99.90;;;;;;5064766;28;20622;-79
2022/07/14 04:57:04;;;;;;;9.15;3.28;;;13.10;99.90;;;;;;5050563;28;20945;-79
2022/07/14 04:59:30;;;;;;;7.70;3.80;;;13.00;99.90;;;;;;5054966;28;20131;-79
2022/07/14 05:01:56;;;;;;;5.70;3.13;;;13.30;99.90;;;;;;5058158;28;20044;-79
2022/07/14 05:04:22;;;;;;;7.88;3.20;;;13.40;99.90;;;;;;5064964;28;20373;-79
2022/07/14 05:06:49;;;;;;;7.50;3.38;;;13.00;99.90;;;;;;5060717;28;20077;-80
2022/07/14 05:09:19;;;;;;;10.00;3.08;;;13.60;99.90;;;;;;5059131;28;20041;-80
2022/07/14 05:11:45;;;;;;;7.85;3.47;;;13.40;99.90;;;;;;5058912;28;20040;-79
2022/07/14 05:14:10;;;;;;;10.82;3.50;;;12.80;99.90;;;;;;5054062;28;20087;-79
2022/07/14 05:16:36;;;;;;;10.13;3.20;;;12.90;99.90;;;;;;5058782;28;20064;-79
2022/07/14 05:19:02;;;;;;;11.00;2.97;;;13.50;99.90;;;;;;5052439;28;20112;-79
2022/07/14 05:21:27;;;;;;;8.77;2.97;;;13.70;99.90;;;;;;5059257;28;20491;-79
2022/07/14 05:23:53;;;;;;;10.82;2.72;;;13.00;99.90;;;;;;5060741;28;20047;-79
2022/07/14 05:26:19;;;;;;;7.57;2.10;;;12.80;99.90;;;;;;5057679;28;20500;-80
2022/07/14 05:28:44;;;;;;;8.75;3.08;;;13.40;99.90;;;;;;5051587;28;20041;-79
2022/07/14 05:31:10;;;;;;;9.00;2.35;;;13.90;99.90;;;;;;5054557;28;20411;-82
2022/07/14 05:33:36;;;;;;;8.88;2.22;;;14.00;99.90;;;;;;5053184;28;20050;-82
2022/07/14 05:36:03;;;;;;;7.93;2.75;;;14.00;99.90;;;;;;5068619;28;20040;-83
2022/07/14 05:38:31;;;;;;;7.22;2.20;;;13.30;99.90;;;;;;5060873;28;20123;-81
2022/07/14 05:40:58;;;;;;;7.72;2.63;;;14.10;99.90;;;;;;5051482;28;20407;-81
2022/07/14 05:43:24;;;;;;;6.63;2.00;;;13.30;99.90;;;;;;5058328;28;20036;-82
2022/07/14 05:45:50;;;;;;;5.50;2.05;;;13.50;99.90;;;;;;5056658;28;20052;-81
2022/07/14 05:48:15;;;;;;;11.43;2.47;;;13.90;99.90;;;;;;5064616;28;20041;-81
2022/07/14 05:50:41;;;;;;;9.48;2.25;;;14.20;99.90;;;;;;5051688;28;20040;-81
2022/07/14 05:53:06;;;;;;;6.72;1.70;;;13.70;99.90;;;;;;5061473;28;20044;-81
2022/07/14 05:55:33;;;;;;;8.88;1.70;;;13.60;99.90;;;;;;5065303;28;20123;-81
2022/07/14 05:57:58;;;;;;;7.72;2.22;;;14.30;99.90;;;;;;5060970;28;20044;-81
2022/07/14 06:00:24;;;;;;;8.25;1.92;;;13.70;99.90;;;;;;5065815;28;20495;-82
2022/07/14 06:02:49;;;;;;;8.40;2.17;;;14.10;99.90;;;;;;5057239;28;20095;-83
2022/07/14 06:05:15;;;;;;;8.55;2.08;;;13.60;99.90;;;;;;5056851;28;20542;-82
2022/07/14 06:07:41;;;;;;;7.68;1.73;;;14.00;99.90;;;;;;5057522;28;20126;-83
2022/07/14 06:10:10;;;;;;;9.40;1.90;;;14.20;99.90;;;;;;5058712;28;20048;-82
2022/07/14 06:12:37;;;;;;;6.05;1.50;;;14.80;99.90;;;;;;5052965;28;20040;-83
2022/07/14 06:15:05;;;;;;;8.32;1.50;;;14.00;99.90;;;;;;5051392;28;20024;-83
2022/07/14 06:17:31;;;;;;;7.53;1.50;;;14.10;99.90;;;;;;5063943;28;20059;-84
2022/07/14 06:20:00;;;;;;;5.35;1.77;;;14.90;99.90;;;;;;5059603;28;20127;-83
2022/07/14 06:22:26;;;;;;;7.40;1.30;;;14.40;99.90;;;;;;5066977;28;20052;-85
2022/07/14 06:24:52;;;;;;;8.48;1.40;;;14.90;99.90;;;;;;5055374;28;20468;-83
2022/07/14 06:27:18;;;;;;;6.65;1.30;;;14.90;99.90;;;;;;5060088;28;20052;-83
2022/07/14 06:29:43;;;;;;;7.22;1.63;;;14.60;99.90;;;;;;5068623;28;20488;-83
2022/07/14 06:32:09;;;;;;;5.55;1.17;;;14.90;99.90;;;;;;5063309;28;20139;-85
2022/07/14 06:34:34;;;;;;;8.38;1.35;;;15.20;99.90;;;;;;5069741;28;20044;-85
2022/07/14 06:37:00;;;;;;;9.88;1.40;;;15.30;99.90;;;;;;5058558;28;20374;-84
2022/07/14 06:39:26;;;;;;;4.07;1.17;;;14.90;99.90;;;;;;5057052;28;20052;-85
2022/07/14 06:41:51;;;;;;;4.18;0.93;;;15.20;99.90;;;;;;5053105;28;20523;-81
2022/07/14 06:44:17;;;;;;;9.60;1.27;;;14.80;99.90;;;;;;5071678;28;20037;-81
2022/07/14 06:46:43;;;;;;;8.85;1.38;;;15.70;99.90;;;;;;5063618;28;20507;-81
2022/07/14 06:49:08;;;;;;;4.70;1.13;;;15.40;99.90;;;;;;5075587;28;20451;-81
2022/07/14 06:51:34;;;;;;;11.90;1.10;;;15.00;99.90;;;;;;5061547;28;20045;-83
2022/07/14 06:54:00;;;;;;;5.22;1.10;;;15.10;99.90;;;;;;5061289;28;20044;-82
2022/07/14 06:56:26;;;;;;;6.32;1.10;;;15.20;99.90;;;;;;5058694;28;20235;-81
2022/07/14 06:58:51;;;;;;;5.32;1.00;;;15.30;99.90;;;;;;5065011;28;20032;-81
2022/07/14 07:01:18;;;;;;;4.95;1.00;;;15.30;99.90;;;;;;5069991;28;20113;-81
2022/07/14 07:03:43;;;;;;;6.53;1.00;;;15.60;99.90;;;;;;5060654;28;20044;-82
2022/07/14 07:08:53;;;;;;;5.60;1.00;;;15.70;99.90;;;;;;5063365;28;20131;-88
2022/07/14 07:11:18;;;;;;;7.85;1.30;;;16.30;99.90;;;;;;5066867;28;20123;-85
2022/07/14 07:13:44;;;;;;;11.57;1.23;;;16.50;99.90;;;;;;5067943;28;20045;-83
2022/07/14 07:16:10;;;;;;;7.25;1.00;;;16.20;99.90;;;;;;5066751;28;20052;-87
2022/07/14 07:18:36;;;;;;;5.28;0.80;;;16.50;99.90;;;;;;5054718;28;20106;-86
2022/07/14 07:21:03;;;;;;;7.00;1.08;;;16.80;99.90;;;;;;5059678;28;20110;-86
2022/07/14 07:23:30;;;;;;;5.45;1.17;;;17.00;99.90;;;;;;5065252;28;20044;-85
2022/07/14 07:25:56;;;;;;;4.75;0.70;;;17.40;99.90;;;;;;5062280;28;20094;-85
2022/07/14 07:28:21;;;;;;;3.88;0.75;;;18.20;99.90;;;;;;5061000;28;20746;-85
2022/07/14 07:30:47;;;;;;;6.00;0.80;;;18.60;99.90;;;;;;5061578;28;20041;-86
2022/07/14 07:33:13;;;;;;;5.75;0.90;;;18.60;99.90;;;;;;5054654;28;20473;-85
2022/07/14 07:35:39;;;;;;;5.72;0.70;;;18.10;99.90;;;;;;5070337;28;20036;-86
2022/07/14 07:38:05;;;;;;;4.32;1.02;;;19.00;99.90;;;;;;5059063;28;20028;-85
2022/07/14 07:40:30;;;;;;;2.38;0.50;;;18.00;99.90;;;;;;5065348;28;20102;-85
2022/07/14 07:42:56;;;;;;;8.02;0.68;;;18.60;99.90;;;;;;5070042;28;20060;-85
2022/07/14 07:45:22;;;;;;;5.43;0.68;;;19.60;99.90;;;;;;5061557;28;20152;-85
2022/07/14 07:47:48;;;;;;;4.75;0.70;;;18.90;99.90;;;;;;5065643;28;20040;-85
2022/07/14 07:50:14;;;;;;;7.75;0.68;;;19.30;99.90;;;;;;5062066;28;20048;-85
2022/07/14 07:52:39;;;;;;;4.13;0.60;;;19.50;99.90;;;;;;5067408;28;20161;-85
2022/07/14 07:55:09;;;;;;;4.25;0.70;;;20.30;99.90;;;;;;5066988;28;20040;-85
2022/07/14 07:57:35;;;;;;;3.78;0.60;;;20.00;99.90;;;;;;5066280;28;20185;-85
2022/07/14 08:00:01;;;;;;;2.40;0.60;;;20.50;99.90;;;;;;5061854;28;20041;-85
2022/07/14 08:02:27;;;;;;;1.48;0.50;;;20.20;99.90;;;;;;5064009;28;20094;-85
2022/07/14 08:04:52;;;;;;;6.07;0.60;;;20.40;99.90;;;;;;5059682;28;20488;-85
2022/07/14 08:07:18;;;;;;;3.17;0.57;;;20.90;99.90;;;;;;5061514;28;20667;-86
2022/07/14 08:09:45;;;;;;;4.30;0.55;;;20.50;99.90;;;;;;5060823;28;20044;-85
2022/07/14 08:12:10;;;;;;;4.93;0.70;;;20.30;99.90;;;;;;5068487;28;20040;-85
2022/07/14 08:14:48;;;;;;;3.53;0.47;;;20.10;99.90;;;;;;5065942;28;20045;-85
2022/07/14 08:17:14;;;;;;;3.13;0.35;;;20.10;99.90;;;;;;5063699;28;20048;-85
2022/07/14 08:19:39;;;;;;;5.32;0.80;;;20.50;99.90;;;;;;5066869;28;20052;-85
2022/07/14 08:22:05;;;;;;;4.13;0.50;;;20.00;99.90;;;;;;5064751;28;20043;-86
2022/07/14 08:24:31;;;;;;;4.22;0.50;;;20.10;99.90;;;;;;5052514;28;20048;-85
2022/07/14 08:26:57;;;;;;;2.78;0.73;;;20.60;99.90;;;;;;5054461;28;20060;-85
2022/07/14 08:29:23;;;;;;;3.17;0.60;;;20.50;99.90;;;;;;5065153;28;20057;-85
2022/07/14 08:31:49;;;;;;;4.90;0.60;;;20.20;99.90;;;;;;5067628;28;20040;-85
2022/07/14 08:34:14;;;;;;;6.13;0.70;;;20.10;99.90;;;;;;5063001;28;20048;-85
2022/07/14 08:36:40;;;;;;;4.10;0.60;;;20.40;99.90;;;;;;5062130;28;20120;-85
2022/07/14 08:39:06;;;;;;;5.70;0.60;;;20.40;99.90;;;;;;5063976;28;20080;-85
2022/07/14 08:41:34;;;;;;;6.47;0.70;;;20.70;99.90;;;;;;5055159;28;20041;-86
2022/07/14 08:44:00;;;;;;;4.28;0.68;;;20.90;99.90;;;;;;5066303;28;20040;-85
2022/07/14 08:46:25;;;;;;;2.95;0.45;;;21.00;99.90;;;;;;5066888;28;20492;-85
2022/07/14 08:48:55;;;;;;;3.70;0.50;;;20.50;99.90;;;;;;5069201;28;20051;-89
2022/07/14 08:51:21;;;;;;;3.63;0.47;;;20.40;99.90;;;;;;5059110;28;20053;-86
2022/07/14 08:53:47;;;;;;;5.18;0.80;;;20.80;99.90;;;;;;5068551;28;20044;-84
2022/07/14 08:56:13;;;;;;;5.65;0.68;;;20.70;99.90;;;;;;5059858;28;20044;-86
2022/07/14 08:58:40;;;;;;;3.60;0.60;;;20.90;99.90;;;;;;5063235;28;20041;-85
2022/07/14 09:01:06;;;;;;;4.18;0.70;;;20.50;99.90;;;;;;5064781;28;20131;-84
2022/07/14 09:03:32;;;;;;;4.18;0.40;;;20.60;99.90;;;;;;5058871;28;20136;-81
2022/07/14 09:05:58;;;;;;;3.08;0.30;;;20.70;99.90;;;;;;5057898;28;20051;-84
2022/07/14 09:08:23;;;;;;;3.17;0.55;;;21.10;99.90;;;;;;5063736;28;20451;-84
2022/07/14 09:10:49;;;;;;;4.00;0.65;;;20.80;99.90;;;;;;5057396;28;20086;-83
2022/07/14 09:13:20;;;;;;;4.25;1.05;;;21.30;99.90;;;;;;5062831;28;20908;-83
2022/07/14 09:15:47;;;;;;;5.43;0.73;;;20.80;99.90;;;;;;5062409;28;20053;-83
2022/07/14 09:18:23;;;;;;;3.92;0.63;;;21.10;99.90;;;;;;5063365;28;20044;-83
2022/07/14 09:20:51;;;;;;;2.80;0.50;;;20.90;99.90;;;;;;5068195;28;20083;-83
2022/07/14 09:23:26;;;;;;;3.47;0.60;;;20.70;99.90;;;;;;5069400;28;20048;-83
2022/07/14 09:26:08;;;;;;;5.50;0.52;;;20.70;99.90;;;;;;5066829;28;20094;-84
2022/07/14 09:28:39;;;;;;;2.85;0.60;;;20.70;99.90;;;;;;5056741;28;20082;-83
2022/07/14 09:31:40;;;;;;;3.60;0.50;;;20.70;99.90;;;;;;5058759;28;20472;-83
2022/07/14 09:34:06;;;;;;;2.45;0.60;;;21.00;99.90;;;;;;5014979;28;20420;-83
2022/07/14 09:36:34;;;;;;;4.03;0.60;;;21.10;99.90;;;;;;5058077;28;20037;-84
2022/07/14 09:39:06;;;;;;;2.20;0.47;;;21.10;99.90;;;;;;5064585;28;20048;-83
2022/07/14 09:41:52;;;;;;;2.63;0.70;;;21.20;99.90;;;;;;5065350;28;20032;-83
2022/07/14 09:44:18;;;;;;;3.70;0.50;;;21.30;99.90;;;;;;5052938;28;20864;-83
2022/07/14 09:46:56;;;;;;;3.00;0.60;;;21.20;99.90;;;;;;5061787;28;20495;-83
2022/07/14 09:49:27;;;;;;;5.38;0.57;;;21.40;99.90;;;;;;5060832;28;20044;-84
2022/07/14 09:52:04;;;;;;;2.78;0.88;;;21.50;99.90;;;;;;5062329;28;20059;-83
2022/07/14 09:54:41;;;;;;;1.90;0.47;;;21.40;99.90;;;;;;5054510;28;20126;-84
2022/07/14 09:57:12;;;;;;;4.07;0.57;;;21.80;99.90;;;;;;5051487;28;20492;-85
2022/07/14 09:59:46;;;;;;;3.00;0.90;;;21.50;99.90;;;;;;5064191;28;20037;-84
2022/07/14 10:02:21;;;;;;;2.97;0.43;;;21.40;99.90;;;;;;5058418;28;20880;-84
2022/07/14 10:04:47;;;;;;;6.68;0.80;;;21.50;99.90;;;;;;5067510;28;20036;-84
2022/07/14 10:07:15;;;;;;;2.33;0.45;;;21.60;99.90;;;;;;5056744;28;20067;-83
2022/07/14 10:09:54;;;;;;;5.95;0.50;;;21.60;99.90;;;;;;5059984;28;20048;-83
2022/07/14 10:12:20;;;;;;;2.70;0.60;;;21.70;99.90;;;;;;5061621;28;20044;-83
2022/07/14 10:14:47;;;;;;;6.07;0.70;;;21.70;99.90;;;;;;5067276;28;20052;-83
2022/07/14 10:17:15;;;;;;;2.63;0.60;;;21.80;99.70;;;;;;5068331;28;20064;-82
2022/07/14 10:19:41;;;;;;;3.78;0.65;;;21.70;99.90;;;;;;5068932;28;20068;-83
2022/07/14 10:22:08;;;;;;;3.00;0.50;;;22.00;99.90;;;;;;5062832;28;20086;-83
2022/07/14 10:24:35;;;;;;;3.92;0.82;;;21.80;99.30;;;;;;5065260;28;20045;-84
2022/07/14 10:27:02;;;;;;;3.80;0.70;;;21.90;99.90;;;;;;5059257;28;20049;-84
2022/07/14 10:29:28;;;;;;;3.92;0.68;;;21.70;98.40;;;;;;5064111;28;20040;-85
2022/07/14 10:32:19;;;;;;;3.75;0.30;;;22.00;99.40;;;;;;5067127;28;20036;-84
2022/07/14 10:35:20;;;;;;;2.42;0.50;;;21.90;98.90;;;;;;5063301;28;20098;-85
2022/07/14 10:38:14;;;;;;;5.38;0.70;;;22.10;99.50;;;;;;5066928;28;20055;-84
2022/07/14 10:41:15;;;;;;;3.55;0.50;;;22.20;98.70;;;;;;5059429;28;20075;-85
2022/07/14 10:44:09;;;;;;;2.88;0.40;;;22.20;98.30;;;;;;5056054;28;20141;-86
2022/07/14 10:46:39;;;;;;;1.87;0.40;;;22.30;98.40;;;;;;5058364;28;20583;-86
2022/07/14 10:49:07;;;;;;;2.55;0.50;;;22.30;98.40;;;;;;5058999;28;20299;-86
2022/07/14 10:51:34;;;;;;;4.22;0.50;;;22.30;98.60;;;;;;5065031;28;20053;-87
2022/07/14 10:54:16;;;;;;;2.72;0.55;;;22.30;98.80;;;;;;5063906;28;20396;-87
2022/07/14 10:56:45;;;;;;;6.28;0.60;;;22.30;98.00;;;;;;5061863;28;20480;-87
2022/07/14 10:59:26;;;;;;;1.67;0.60;;;22.20;98.70;;;;;;5055577;28;20045;-86
2022/07/14 11:02:10;;;;;;;2.58;0.40;;;22.20;97.90;;;;;;5060405;28;20048;-85
2022/07/14 11:04:55;;;;;;;5.90;0.60;;;22.20;97.20;;;;;;5065581;28;20040;-85
2022/07/14 11:07:41;;;;;;;3.30;0.50;;;22.00;97.90;;;;;;5064739;28;20049;-84
2022/07/14 11:10:19;;;;;;;4.07;0.85;;;22.10;98.30;;;;;;5063483;28;20052;-85
2022/07/14 11:13:00;;;;;;;5.47;0.60;;;22.00;97.90;;;;;;5059183;28;20048;-86
2022/07/14 11:15:49;;;;;;;4.10;0.70;;;21.90;98.50;;;;;;5065924;28;20045;-85
2022/07/14 11:18:18;;;;;;;1.63;0.50;;;21.90;99.10;;;;;;5063373;28;20071;-85
2022/07/14 11:21:06;;;;;;;4.45;0.68;;;21.80;98.20;;;;;;5065230;28;20109;-86
2022/07/14 11:23:36;;;;;;;3.47;0.50;;;21.70;99.00;;;;;;5069839;28;20048;-85
2022/07/14 11:26:07;;;;;;;5.05;0.40;;;21.60;99.00;;;;;;5065796;28;20041;-86
2022/07/14 11:28:39;;;;;;;2.13;0.40;;;21.50;99.40;;;;;;5065387;28;20055;-86
2022/07/14 11:31:16;;;;;;;2.70;0.70;;;21.40;99.60;;;;;;5063152;28;20083;-84
2022/07/14 11:36:32;;;;;;;2.72;0.52;;;21.30;99.30;;;;;;5059762;28;20605;-85
2022/07/14 11:39:16;;;;;;;1.88;0.50;;;21.30;99.70;;;;;;5062193;28;20090;-84
2022/07/14 11:42:11;;;;;;;3.97;1.03;;;21.30;99.20;;;;;;5062331;28;20053;-85
2022/07/14 11:44:40;;;;;;;3.33;0.50;;;21.30;99.40;;;;;;5064138;28;20395;-85
2022/07/14 11:47:13;;;;;;;4.82;0.50;;;21.50;99.50;;;;;;5062153;28;20044;-88
2022/07/14 11:49:38;;;;;;;2.45;0.40;;;21.30;99.50;;;;;;5070976;28;20057;-87
2022/07/14 11:52:06;;;;;;;3.45;0.60;;;21.50;99.50;;;;;;5059451;28;20043;-84
2022/07/14 11:54:32;;;;;;;2.50;0.52;;;21.70;99.60;;;;;;5060875;28;20032;-84
2022/07/14 11:57:02;;;;;;;2.75;0.60;;;21.90;99.70;;;;;;5062866;28;20142;-88
2022/07/14 11:59:28;;;;;;;3.03;0.50;;;22.00;99.50;;;;;;5058979;28;20052;-83
2022/07/14 12:02:05;;;;;;;2.60;0.45;;;22.20;99.10;;;;;;5068462;28;20044;-83
2022/07/14 12:04:31;;;;;;;4.20;0.52;;;23.00;99.30;;;;;;5066073;28;20502;-84
2022/07/14 12:06:56;;;;;;;2.55;0.47;;;22.60;98.30;;;;;;5058129;28;20049;-83
2022/07/14 12:09:33;;;;;;;1.88;0.35;;;22.80;97.60;;;;;;5072347;28;20662;-84
2022/07/14 12:11:59;;;;;;;2.10;0.40;;;22.80;97.00;;;;;;5064891;28;20863;-83
2022/07/14 12:14:25;;;;;;;5.68;0.60;;;22.70;97.70;;;;;;5062171;28;20051;-83
2022/07/14 12:16:51;;;;;;;4.38;0.63;;;22.80;97.40;;;;;;5077700;28;20048;-84
2022/07/14 12:19:28;;;;;;;1.60;0.40;;;22.80;96.90;;;;;;5059273;28;20113;-84
2022/07/14 12:21:58;;;;;;;1.33;0.32;;;22.80;96.30;;;;;;5066816;28;20075;-84
2022/07/14 12:24:25;;;;;;;4.55;0.65;;;22.60;96.60;;;;;;5066135;28;20060;-84
2022/07/14 12:26:51;;;;;;;6.80;0.80;;;22.40;97.10;;;;;;5061127;28;20059;-83
2022/07/14 12:29:16;;;;;;;2.58;0.50;;;22.30;96.80;;;;;;5063133;28;20052;-86
2022/07/14 12:31:42;;;;;;;3.60;0.40;;;22.30;96.70;;;;;;5066836;28;20044;-85
2022/07/14 12:34:08;;;;;;;4.28;0.50;;;22.20;96.40;;;;;;5065201;28;20063;-85
2022/07/14 12:36:35;;;;;;;6.75;0.60;;;22.50;96.80;;;;;;5065696;28;20395;-85
2022/07/14 12:39:04;;;;;;;1.88;0.35;;;22.30;95.60;;;;;;5065313;28;20036;-89
2022/07/14 12:41:30;;;;;;;4.15;0.68;;;22.30;95.90;;;;;;5059447;28;20037;-86
2022/07/14 12:43:56;;;;;;;5.20;0.50;;;22.30;96.30;;;;;;5063167;28;20467;-84
2022/07/14 12:46:23;;;;;;;3.58;0.50;;;22.20;96.90;;;;;;5064194;28;20090;-85
2022/07/14 12:48:52;;;;;;;3.72;1.13;;;22.10;96.90;;;;;;5059315;28;20049;-84
2022/07/14 12:51:28;;;;;;;3.55;0.50;;;22.00;96.90;;;;;;5064932;28;20780;-83
2022/07/14 12:54:18;;;;;;;3.95;0.88;;;21.90;96.90;;;;;;5065666;28;20041;-81
2022/07/14 12:56:43;;;;;;;2.00;0.60;;;21.80;96.30;;;;;;5058757;28;20037;-82
2022/07/14 12:59:11;;;;;;;3.95;0.55;;;21.70;97.30;;;;;;5059847;28;20055;-80
2022/07/14 13:01:59;;;;;;;3.42;0.60;;;21.60;97.10;;;;;;5056141;28;20040;-81
2022/07/14 13:04:37;;;;;;;3.28;0.60;;;21.40;96.30;;;;;;5063285;28;20048;-81